createdAt,value
2022-09-12T04:00:49.362Z,70.38
2022-09-12T04:04:53.203Z,70.61
2022-09-12T04:08:56.105Z,70.72
2022-09-12T04:12:58.629Z,70.22
2022-09-12T04:17:01.379Z,69.93
2022-09-12T04:21:07.039Z,70.41
2022-09-12T04:25:11.577Z,70.45
2022-09-12T04:29:14.963Z,70.46
2022-09-12T04:33:17.708Z,70.47
2022-09-12T04:37:23.467Z,70.68
2022-09-12T04:41:28.362Z,70.13
2022-09-12T04:45:30.942Z,70.28
2022-09-12T04:49:33.494Z,70.14
2022-09-12T04:53:37.974Z,70.02
2022-09-12T04:57:40.720Z,69.51
2022-09-12T05:01:43.798Z,69.23
2022-09-12T05:05:46.240Z,69.19
2022-09-12T05:09:50.170Z,68.90
2022-09-12T05:13:53.030Z,69.08
2022-09-12T05:17:55.464Z,69.73
2022-09-12T05:21:58.785Z,69.66
2022-09-12T05:26:04.628Z,69.80
2022-09-12T05:30:08.409Z,69.64
2022-09-12T05:34:11.250Z,69.30
2022-09-12T05:38:13.694Z,69.29
2022-09-12T05:42:17.465Z,69.15
2022-09-12T05:46:21.650Z,68.78
2022-09-12T05:50:25.457Z,68.57
2022-09-12T05:54:31.351Z,68.64
2022-09-12T05:58:36.567Z,68.22
2022-09-12T06:02:39.346Z,67.88
2022-09-12T06:06:44.854Z,67.37
2022-09-12T06:10:47.315Z,67.33
2022-09-12T06:14:51.102Z,67.13
2022-09-12T06:18:55.886Z,67.26
2022-09-12T06:22:58.317Z,66.87
2022-09-12T06:27:02.266Z,65.55
2022-09-12T06:31:08.223Z,65.54
2022-09-12T06:35:10.724Z,64.99
2022-09-12T06:39:16.141Z,63.83
2022-09-12T06:43:19.908Z,64.13
2022-09-12T06:47:24.444Z,63.31
2022-09-12T06:51:28.364Z,62.71
2022-09-12T06:55:30.796Z,62.53
2022-09-12T06:59:33.310Z,63.54
2022-09-12T07:03:38.246Z,63.73
2022-09-12T07:07:40.669Z,63.86
2022-09-12T07:11:44.561Z,64.38
2022-09-12T07:15:47.017Z,64.03
2022-09-12T07:19:50.764Z,64.13
2022-09-12T07:23:55.175Z,63.69
2022-09-12T07:27:57.610Z,64.26
2022-09-12T07:32:01.568Z,64.47
2022-09-12T07:36:07.703Z,64.42
2022-09-12T07:40:11.295Z,64.49
2022-09-12T07:44:13.801Z,65.64
2022-09-12T07:48:16.333Z,64.34
2022-09-12T07:52:20.231Z,64.62
2022-09-12T07:56:27.335Z,64.26
2022-09-12T08:00:35.831Z,64.61
2022-09-12T08:04:38.277Z,64.46
2022-09-12T08:08:42.569Z,64.09
2022-09-12T08:12:45.006Z,63.66
2022-09-12T08:16:48.089Z,63.36
2022-09-12T08:20:57.392Z,63.69
2022-09-12T08:25:01.178Z,63.55
2022-09-12T08:29:04.122Z,63.17
2022-09-12T08:33:07.816Z,63.64
2022-09-12T08:37:10.254Z,63.46
2022-09-12T08:41:24.941Z,63.25
2022-09-12T08:45:34.202Z,62.62
2022-09-12T08:49:43.162Z,61.75
2022-09-12T08:53:48.209Z,61.65
2022-09-12T08:57:52.690Z,61.54
2022-09-12T09:01:59.704Z,60.59
2022-09-12T09:06:08.771Z,60.45
2022-09-12T09:10:22.134Z,60.35
2022-09-12T09:14:49.627Z,60.12
2022-09-12T09:18:54.910Z,59.07
2022-09-12T09:23:02.816Z,58.61
2022-09-12T09:27:23.845Z,57.72
2022-09-12T09:31:38.996Z,55.80
2022-09-12T09:35:45.654Z,57.02
2022-09-12T09:40:00.404Z,55.44
2022-09-12T09:44:03.447Z,55.13
2022-09-12T09:48:16.950Z,54.02
2022-09-12T09:52:27.330Z,52.89
2022-09-12T09:56:33.770Z,52.77
2022-09-12T10:00:38.972Z,51.28
2022-09-12T10:04:55.160Z,50.74
2022-09-12T10:09:08.895Z,50.60
2022-09-12T10:13:28.005Z,48.57
2022-09-12T10:17:34.497Z,50.06
2022-09-12T10:21:43.397Z,48.67
2022-09-12T10:25:47.715Z,48.44
2022-09-12T10:29:54.585Z,47.05
2022-09-12T10:33:59.061Z,46.32
2022-09-12T10:38:05.731Z,45.60
2022-09-12T10:42:08.319Z,46.17
2022-09-12T10:46:28.676Z,45.22
2022-09-12T10:50:36.089Z,43.93
2022-09-12T10:54:39.925Z,44.12
2022-09-12T10:59:20.159Z,43.36
2022-09-12T11:03:30.510Z,43.10
2022-09-12T11:07:44.018Z,42.42
2022-09-12T11:12:00.473Z,42.67
2022-09-12T11:16:14.949Z,42.67
2022-09-12T11:20:36.309Z,42.93
2022-09-12T11:24:56.533Z,41.13
2022-09-12T11:29:11.156Z,41.98
2022-09-12T11:33:28.842Z,40.47
2022-09-12T11:37:56.910Z,40.23
2022-09-12T11:42:03.385Z,40.83
2022-09-12T11:46:14.952Z,40.35
2022-09-12T11:50:23.308Z,40.49
2022-09-12T11:54:33.537Z,39.48
2022-09-12T11:58:38.078Z,39.19
2022-09-12T12:03:02.255Z,38.28
2022-09-12T12:07:07.286Z,37.94
2022-09-12T12:11:30.200Z,38.80
2022-09-12T12:15:33.014Z,37.32
2022-09-12T12:19:38.398Z,37.45
2022-09-12T12:23:41.274Z,36.89
2022-09-12T12:27:48.331Z,36.95
2022-09-12T12:32:23.941Z,36.45
2022-09-12T12:36:51.466Z,37.00
2022-09-12T12:40:54.144Z,36.72
2022-09-12T12:44:56.698Z,36.20
2022-09-12T12:49:11.234Z,36.23
2022-09-12T12:53:23.998Z,36.42
2022-09-12T12:57:41.618Z,37.02
2022-09-12T13:01:54.765Z,36.46
2022-09-12T13:06:03.200Z,36.21
2022-09-12T13:10:09.007Z,36.77
2022-09-12T13:14:37.368Z,36.51
2022-09-12T13:18:44.257Z,37.24
2022-09-12T13:22:49.168Z,38.85
2022-09-12T13:26:53.429Z,38.55
2022-09-12T13:31:01.361Z,37.54
2022-09-12T13:35:12.031Z,37.25
2022-09-12T13:39:20.979Z,38.30
2022-09-12T13:43:37.035Z,39.33
2022-09-12T13:47:42.851Z,39.02
2022-09-12T13:51:45.422Z,37.95
2022-09-12T13:55:50.535Z,38.57
2022-09-12T13:59:57.582Z,38.16
2022-09-12T14:04:17.593Z,37.91
2022-09-12T14:08:20.998Z,37.74
2022-09-12T14:12:26.942Z,37.56
2022-09-12T14:16:34.290Z,38.85
2022-09-12T14:20:39.397Z,37.55
2022-09-12T14:24:42.470Z,36.40
2022-09-12T14:28:47.356Z,36.14
2022-09-12T14:33:06.658Z,36.83
2022-09-12T14:37:09.368Z,36.63
2022-09-12T14:41:13.316Z,37.14
2022-09-12T14:45:18.963Z,35.41
2022-09-12T14:49:31.090Z,35.61
2022-09-12T14:53:35.609Z,35.09
2022-09-12T14:57:40.830Z,35.80
2022-09-12T15:01:43.473Z,35.79
2022-09-12T15:05:50.942Z,35.38
2022-09-12T15:09:53.428Z,35.89
2022-09-12T15:13:55.996Z,35.71
2022-09-12T15:17:58.565Z,34.76
2022-09-12T15:22:02.396Z,34.71
2022-09-12T15:26:05.574Z,33.84
2022-09-12T15:30:10.168Z,33.52
2022-09-12T15:34:12.604Z,33.73
2022-09-12T15:38:16.436Z,33.00
2022-09-12T15:42:26.690Z,32.24
2022-09-12T15:46:29.384Z,32.48
2022-09-12T15:50:31.952Z,32.63
2022-09-12T15:54:36.161Z,32.63
2022-09-12T15:58:54.656Z,32.96
2022-09-12T16:02:57.753Z,33.20
2022-09-12T16:07:00.270Z,34.35
2022-09-12T16:11:05.971Z,34.51
2022-09-12T16:15:12.462Z,35.02
2022-09-12T16:19:15.394Z,34.90
2022-09-12T16:23:17.830Z,34.04
2022-09-12T16:27:21.597Z,33.87
2022-09-12T16:31:24.262Z,34.89
2022-09-12T16:35:26.999Z,36.02
2022-09-12T16:39:29.426Z,36.48
2022-09-12T16:43:34.634Z,37.27
2022-09-12T16:47:37.079Z,37.66
2022-09-12T16:51:43.703Z,38.18
2022-09-12T16:55:49.443Z,39.31
2022-09-12T16:59:53.219Z,39.77
2022-09-12T17:03:56.621Z,41.97
2022-09-12T17:07:59.054Z,42.72
2022-09-12T17:12:01.934Z,43.80
2022-09-12T17:16:07.977Z,44.17
2022-09-12T17:20:11.043Z,45.27
2022-09-12T17:24:14.011Z,46.20
2022-09-12T17:28:16.679Z,46.20
2022-09-12T17:32:20.458Z,46.55
2022-09-12T17:36:23.191Z,48.71
2022-09-12T17:40:42.497Z,48.81
2022-09-12T17:44:48.004Z,50.18
2022-09-12T17:48:54.271Z,51.02
2022-09-12T17:52:57.563Z,50.65
2022-09-12T17:56:59.981Z,51.79
2022-09-12T18:01:20.979Z,52.43
2022-09-12T18:05:24.791Z,52.70
2022-09-12T18:09:28.034Z,52.26
2022-09-12T18:13:30.886Z,53.73
2022-09-12T18:17:33.360Z,54.93
2022-09-12T18:21:37.379Z,53.97
2022-09-12T18:25:39.822Z,54.26
2022-09-12T18:29:42.256Z,54.84
2022-09-12T18:33:46.170Z,55.07
2022-09-12T18:37:49.940Z,55.67
2022-09-12T18:41:52.510Z,56.03
2022-09-12T18:45:55.047Z,56.09
2022-09-12T18:49:57.473Z,56.07
2022-09-12T18:54:06.094Z,56.93
2022-09-12T18:58:08.566Z,57.39
2022-09-12T19:02:15.888Z,58.43
2022-09-12T19:06:20.618Z,58.31
2022-09-12T19:10:24.606Z,58.26
2022-09-12T19:14:27.338Z,59.16
2022-09-12T19:18:31.249Z,59.13
2022-09-12T19:22:33.712Z,59.13
2022-09-12T19:26:38.081Z,59.70
2022-09-12T19:30:47.640Z,59.61
2022-09-12T19:34:50.090Z,59.93
2022-09-12T19:38:52.521Z,60.25
2022-09-12T19:42:56.304Z,60.65
2022-09-12T19:46:58.742Z,61.25
2022-09-12T19:51:01.907Z,61.64
2022-09-12T19:55:04.593Z,61.67
2022-09-12T19:59:08.619Z,61.75
2022-09-12T20:03:11.086Z,61.66
2022-09-12T20:07:13.572Z,62.17
2022-09-12T20:11:18.378Z,62.22
2022-09-12T20:15:23.370Z,62.25
2022-09-12T20:19:25.989Z,62.36
2022-09-12T20:23:28.446Z,62.29
2022-09-12T20:27:31.311Z,62.80
2022-09-12T20:31:35.699Z,62.78
2022-09-12T20:35:38.186Z,62.46
2022-09-12T20:39:40.815Z,62.79
2022-09-12T20:43:43.317Z,63.29
2022-09-12T20:47:47.078Z,63.07
2022-09-12T20:51:49.573Z,62.81
2022-09-12T20:55:52.890Z,63.24
2022-09-12T20:59:55.247Z,63.10
